Time;durP1;ratioP1;P1;durP2;ratioP2;P2;SDS_P1;SDS_P2;PMS_P1;PMS_P2;Temp;Humidity;BMP_temperature;BMP_pressure;BME280_temperature;BME280_humidity;BME280_pressure;Samples;Min_cycle;Max_cycle;Signal;HPM_P1;HPM_P2
2022/07/14 00:00:40;;;;;;;3.87;1.40;;;;;;;18.65;76.65;98778.66;1684361;84;20919;-65
2022/07/14 00:03:07;;;;;;;1.87;1.22;;;;;;;18.61;76.54;98781.03;1684441;84;21271;-66
2022/07/14 00:05:35;;;;;;;1.27;1.17;;;;;;;18.63;76.52;98783.47;1684403;84;21137;-66
2022/07/14 00:08:03;;;;;;;1.77;1.30;;;;;;;18.64;76.60;98781.08;1684536;85;21057;-66
2022/07/14 00:10:29;;;;;;;1.82;1.00;;;;;;;18.63;76.58;98780.78;1684297;85;20939;-65
2022/07/14 00:12:56;;;;;;;2.45;1.42;;;;;;;18.62;76.77;98779.13;1684348;85;20971;-65
2022/07/14 00:15:24;;;;;;;1.80;1.40;;;;;;;18.59;76.79;98782.33;1684244;84;21532;-65
2022/07/14 00:17:50;;;;;;;2.52;1.20;;;;;;;18.57;76.76;98781.20;1684409;85;21489;-65
2022/07/14 00:20:19;;;;;;;1.72;1.35;;;;;;;18.60;76.69;98782.59;1682826;84;21016;-66
2022/07/14 00:22:47;;;;;;;1.22;1.12;;;;;;;18.60;76.54;98779.38;1681634;85;21014;-66
2022/07/14 00:25:13;;;;;;;1.90;1.37;;;;;;;18.58;76.50;98780.16;1684403;84;21010;-65
2022/07/14 00:27:40;;;;;;;1.80;1.40;;;;;;;18.56;76.48;98779.58;1684382;85;21303;-65
2022/07/14 00:30:08;;;;;;;1.50;1.37;;;;;;;18.54;76.64;98782.22;1684316;85;21014;-66
2022/07/14 00:32:35;;;;;;;2.22;1.50;;;;;;;18.49;76.82;98779.70;1682239;85;21062;-66
2022/07/14 00:35:03;;;;;;;1.77;1.47;;;;;;;18.45;76.98;98778.52;1684362;85;20966;-66
2022/07/14 00:37:30;;;;;;;1.90;1.42;;;;;;;18.44;77.12;98778.73;1684293;85;21638;-65
2022/07/14 00:39:57;;;;;;;1.50;1.40;;;;;;;18.43;77.06;98773.08;1684212;85;22057;-65
2022/07/14 00:42:38;;;;;;;1.42;1.32;;;;;;;18.43;77.17;98768.48;1683933;85;21592;-65
2022/07/14 00:45:15;;;;;;;1.45;1.37;;;;;;;18.44;77.10;98770.66;1684387;84;21588;-65
2022/07/14 00:47:42;;;;;;;2.58;1.50;;;;;;;18.41;77.08;98767.91;1684467;85;21061;-65
2022/07/14 00:50:10;;;;;;;1.30;1.20;;;;;;;18.41;77.21;98765.22;1684244;84;21505;-65
2022/07/14 00:52:37;;;;;;;1.75;1.50;;;;;;;18.41;77.38;98764.39;1677398;85;21270;-65
2022/07/14 00:55:05;;;;;;;2.02;1.92;;;;;;;18.38;77.45;98767.59;1684029;85;20998;-65
2022/07/14 00:57:31;;;;;;;2.22;2.12;;;;;;;18.32;77.49;98770.70;1672629;83;21445;-65
2022/07/14 00:59:58;;;;;;;2.30;2.10;;;;;;;18.30;77.52;98773.34;1695790;83;21470;-65
2022/07/14 01:02:24;;;;;;;1.77;1.67;;;;;;;18.29;77.56;98770.34;1698520;83;20915;-65
2022/07/14 01:04:51;;;;;;;2.80;1.60;;;;;;;18.28;77.59;98770.86;1701366;83;21164;-65
2022/07/14 01:07:20;;;;;;;2.22;1.40;;;;;;;18.25;77.72;98776.72;1696521;83;20907;-65
2022/07/14 01:09:46;;;;;;;2.12;1.15;;;;;;;18.24;77.79;98780.48;1696585;83;21463;-65
2022/07/14 01:12:14;;;;;;;1.62;1.40;;;;;;;18.22;77.77;98779.91;1696028;83;21055;-65
2022/07/14 01:14:41;;;;;;;1.45;1.07;;;;;;;18.20;77.83;98779.30;1696622;83;20990;-65
2022/07/14 01:17:08;;;;;;;1.77;1.15;;;;;;;18.17;77.88;98781.11;1699266;83;21163;-65
2022/07/14 01:19:35;;;;;;;2.00;1.07;;;;;;;18.13;77.97;98777.27;1705098;83;20915;-65
2022/07/14 01:22:02;;;;;;;1.85;1.32;;;;;;;18.09;78.04;98777.98;1697145;83;20954;-66
2022/07/14 01:24:29;;;;;;;2.55;1.35;;;;;;;18.07;78.20;98780.09;1696595;83;21071;-65
2022/07/14 01:26:56;;;;;;;3.75;1.10;;;;;;;18.03;78.25;98782.95;1696677;83;21013;-65
2022/07/14 01:29:23;;;;;;;1.45;1.25;;;;;;;17.96;78.36;98780.39;1691421;83;21303;-65
2022/07/14 01:31:51;;;;;;;1.67;1.10;;;;;;;17.89;78.60;98781.01;1664030;85;21610;-65
2022/07/14 01:34:19;;;;;;;1.50;1.15;;;;;;;17.83;78.79;98771.20;1634979;86;21467;-66
2022/07/14 01:36:46;;;;;;;3.80;1.30;;;;;;;17.78;78.98;98777.81;1682752;84;21015;-68
2022/07/14 01:39:14;;;;;;;1.22;1.10;;;;;;;17.73;79.21;98779.83;1652757;84;21107;-69
2022/07/14 01:41:40;;;;;;;1.60;1.50;;;;;;;17.68;79.39;98777.55;1643500;86;21300;-67
2022/07/14 01:44:07;;;;;;;5.85;1.42;;;;;;;17.61;79.61;98777.67;1671853;84;21553;-68
2022/07/14 01:46:33;;;;;;;1.85;1.42;;;;;;;17.56;79.88;98776.20;1671684;84;21086;-64
2022/07/14 01:49:01;;;;;;;1.65;1.50;;;;;;;17.55;80.16;98767.00;1678101;84;20988;-67
2022/07/14 01:51:28;;;;;;;1.77;1.67;;;;;;;17.53;80.39;98761.87;1640681;86;21037;-67
2022/07/14 01:53:57;;;;;;;1.92;1.60;;;;;;;17.54;80.59;98770.77;1636823;87;21320;-65
2022/07/14 01:56:24;;;;;;;1.67;1.57;;;;;;;17.55;80.74;98771.03;1674748;84;21000;-67
2022/07/14 01:58:51;;;;;;;3.80;1.70;;;;;;;17.56;80.83;98767.30;1647279;84;20951;-68
2022/07/14 02:04:04;;;;;;;2.50;1.90;;;;;;;17.61;81.01;98764.73;1703031;84;21010;-64
2022/07/14 02:06:31;;;;;;;2.30;1.75;;;;;;;17.63;81.12;98763.97;1707665;84;21254;-68
2022/07/14 02:08:58;;;;;;;2.10;1.80;;;;;;;17.67;81.26;98768.68;1703381;84;20935;-68
2022/07/14 02:14:13;;;;;;;3.02;1.98;;;;;;;17.72;81.31;98765.28;1696330;84;20995;-69
2022/07/14 02:16:40;;;;;;;3.92;2.50;;;;;;;17.72;81.30;98767.97;1697984;84;20946;-67
2022/07/14 02:19:07;;;;;;;2.58;2.02;;;;;;;17.70;81.33;98774.91;1702068;84;21909;-67
2022/07/14 02:21:34;;;;;;;4.12;2.08;;;;;;;17.70;81.29;98779.50;1696719;83;21028;-66
2022/07/14 02:24:04;;;;;;;6.60;1.90;;;;;;;17.68;81.33;98780.23;1694430;84;20923;-69
2022/07/14 02:26:32;;;;;;;2.47;2.05;;;;;;;17.64;81.39;98785.80;1694006;83;20943;-68
2022/07/14 02:28:59;;;;;;;2.02;1.92;;;;;;;17.60;81.44;98792.67;1699179;84;20884;-68
2022/07/14 02:31:25;;;;;;;2.80;2.08;;;;;;;17.58;81.53;98794.27;1703522;84;21344;-67
2022/07/14 02:33:52;;;;;;;3.22;1.75;;;;;;;17.56;81.66;98792.86;1700322;84;20891;-67
2022/07/14 02:36:19;;;;;;;3.58;3.27;;;;;;;17.54;81.74;98793.09;1708586;84;21494;-65
2022/07/14 02:38:46;;;;;;;3.40;2.27;;;;;;;17.53;81.87;98793.31;1709157;84;21481;-65
2022/07/14 02:41:13;;;;;;;2.75;2.17;;;;;;;17.51;81.90;98789.49;1705858;84;20879;-66
2022/07/14 02:43:40;;;;;;;4.25;2.20;;;;;;;17.51;81.97;98796.21;1670644;84;21320;-66
2022/07/14 02:46:07;;;;;;;2.35;2.20;;;;;;;17.52;81.97;98799.73;1702550;84;21014;-64
2022/07/14 02:48:33;;;;;;;2.30;2.02;;;;;;;17.50;82.09;98797.77;1703071;84;21598;-65
2022/07/14 02:51:05;;;;;;;2.47;2.27;;;;;;;17.50;82.10;98801.28;1703710;84;20915;-64
2022/07/14 02:53:34;;;;;;;2.58;2.10;;;;;;;17.51;82.10;98798.08;1698661;84;20939;-68
2022/07/14 02:56:01;;;;;;;2.20;1.95;;;;;;;17.51;82.17;98796.21;1696083;83;21424;-66
2022/07/14 02:58:29;;;;;;;3.05;2.20;;;;;;;17.51;82.26;98794.05;1700957;84;20939;-65
2022/07/14 03:00:57;;;;;;;3.08;2.02;;;;;;;17.52;82.38;98795.14;1693159;84;20947;-67
2022/07/14 03:03:23;;;;;;;4.15;2.00;;;;;;;17.57;82.46;98810.09;1692896;84;20943;-68
2022/07/14 03:05:50;;;;;;;2.92;2.25;;;;;;;17.61;82.61;98812.63;1692005;84;20894;-65
2022/07/14 03:08:18;;;;;;;4.20;2.30;;;;;;;17.68;82.75;98821.41;1693348;84;21256;-67
2022/07/14 03:10:44;;;;;;;3.20;2.90;;;;;;;17.77;82.76;98824.06;1697326;84;21548;-66
2022/07/14 03:13:11;;;;;;;3.15;2.85;;;;;;;17.89;82.76;98822.72;1693245;84;20876;-65
2022/07/14 03:15:39;;;;;;;2.87;1.72;;;;;;;18.01;82.74;98824.91;1668226;84;21030;-65
2022/07/14 03:18:07;;;;;;;3.27;1.85;;;;;;;18.16;82.68;98819.87;1692646;84;21038;-66
2022/07/14 03:20:36;;;;;;;2.80;2.58;;;;;;;18.32;82.45;98826.42;1693259;84;21169;-65
2022/07/14 03:23:03;;;;;;;4.45;3.75;;;;;;;18.49;82.16;98836.78;1690123;84;21074;-65
2022/07/14 03:25:31;;;;;;;4.78;3.30;;;;;;;18.71;81.63;98828.90;1691478;84;20915;-66
2022/07/14 03:27:58;;;;;;;3.27;2.50;;;;;;;18.91;81.17;98836.05;1693214;84;20972;-66
2022/07/14 03:30:26;;;;;;;5.35;2.42;;;;;;;19.11;80.46;98835.91;1692950;84;20923;-65
2022/07/14 03:32:53;;;;;;;5.28;2.30;;;;;;;19.35;79.96;98843.37;1693225;84;21159;-66
2022/07/14 03:35:19;;;;;;;3.47;3.17;;;;;;;19.63;79.09;98833.92;1691200;84;21393;-65
2022/07/14 03:37:47;;;;;;;5.35;2.60;;;;;;;19.95;77.44;98830.66;1693246;84;20991;-66
2022/07/14 03:40:14;;;;;;;2.60;2.40;;;;;;;20.30;76.04;98831.25;1693214;84;21015;-66
2022/07/14 03:42:41;;;;;;;3.58;2.77;;;;;;;20.71;74.74;98823.16;1693304;84;21451;-66
2022/07/14 03:45:08;;;;;;;3.52;2.87;;;;;;;21.13;73.33;98817.47;1691838;84;21844;-66
2022/07/14 03:47:36;;;;;;;3.08;2.10;;;;;;;21.61;71.67;98822.02;1693116;84;20947;-66
2022/07/14 03:50:05;;;;;;;5.37;2.10;;;;;;;22.06;69.91;98818.88;1692678;84;21091;-68
2022/07/14 03:52:32;;;;;;;2.50;2.30;;;;;;;22.53;67.68;98823.79;1691121;84;20917;-68
2022/07/14 03:54:59;;;;;;;3.12;2.27;;;;;;;23.01;65.33;98825.94;1691788;84;20927;-65
2022/07/14 03:57:26;;;;;;;2.25;2.15;;;;;;;23.44;63.26;98823.38;1691507;84;21250;-68
2022/07/14 03:59:54;;;;;;;4.92;2.20;;;;;;;23.84;61.59;98823.39;1702373;84;20928;-69
2022/07/14 04:02:20;;;;;;;3.45;2.12;;;;;;;24.29;60.34;98819.32;1695537;84;20930;-67
2022/07/14 04:04:48;;;;;;;3.22;2.87;;;;;;;24.79;58.79;98813.50;1703505;84;20980;-65
2022/07/14 04:07:14;;;;;;;3.33;2.90;;;;;;;25.18;56.93;98818.48;1698417;84;21038;-68
2022/07/14 04:09:41;;;;;;;3.70;2.95;;;;;;;25.53;55.26;98807.94;1702935;84;21210;-69
2022/07/14 04:12:08;;;;;;;3.20;2.90;;;;;;;25.89;53.77;98803.05;1704430;84;20971;-68
2022/07/14 04:14:36;;;;;;;6.35;3.00;;;;;;;26.24;52.83;98798.64;1701195;84;20956;-66
2022/07/14 04:17:03;;;;;;;4.58;4.17;;;;;;;26.70;51.45;98799.75;1693811;84;21604;-70
2022/07/14 04:19:31;;;;;;;4.17;3.77;;;;;;;27.21;50.10;98807.33;1700362;84;20856;-66
2022/07/14 04:21:57;;;;;;;3.33;2.77;;;;;;;27.72;48.93;98804.67;1699831;84;21299;-66
2022/07/14 04:24:24;;;;;;;2.50;2.30;;;;;;;28.24;47.66;98804.89;1701050;84;21019;-66
2022/07/14 04:26:52;;;;;;;3.02;2.72;;;;;;;28.71;46.24;98810.04;1694577;84;21510;-69
2022/07/14 04:29:19;;;;;;;2.52;2.27;;;;;;;29.18;45.21;98805.48;1701835;84;20967;-65
2022/07/14 04:31:46;;;;;;;4.33;2.77;;;;;;;29.62;44.09;98810.84;1693647;83;21530;-70
2022/07/14 04:34:14;;;;;;;2.45;2.25;;;;;;;30.04;42.56;98812.27;1702151;84;21116;-67
2022/07/14 04:36:41;;;;;;;2.02;1.82;;;;;;;30.30;41.82;98803.08;1700225;84;21002;-66
2022/07/14 04:39:09;;;;;;;4.35;2.17;;;;;;;30.61;41.18;98792.69;1695018;84;21522;-66
2022/07/14 04:41:36;;;;;;;2.87;2.67;;;;;;;31.02;40.37;98789.85;1699526;84;21065;-66
2022/07/14 04:44:04;;;;;;;4.95;4.08;;;;;;;31.47;39.60;98789.61;1701312;83;20955;-66
2022/07/14 04:46:31;;;;;;;4.58;2.50;;;;;;;31.98;38.65;98790.11;1697411;84;21293;-66
2022/07/14 04:52:02;;;;;;;2.72;2.00;;;;;;;32.83;36.63;98796.73;1700710;84;20998;-66
2022/07/14 04:54:33;;;;;;;4.30;2.17;;;;;;;33.30;35.92;98801.58;1696716;84;20934;-66
2022/07/14 04:57:11;;;;;;;3.20;2.12;;;;;;;33.85;35.16;98796.36;1681837;84;21075;-66
2022/07/14 04:59:40;;;;;;;3.40;2.10;;;;;;;34.34;33.76;98794.59;1703663;84;21168;-68
2022/07/14 05:02:08;;;;;;;4.17;2.30;;;;;;;34.60;33.26;98793.14;1701341;84;20955;-67
2022/07/14 05:04:35;;;;;;;2.42;2.22;;;;;;;34.90;32.70;98797.06;1703742;84;21545;-68
2022/07/14 05:07:04;;;;;;;3.15;1.98;;;;;;;35.22;32.04;98797.52;1700302;84;21026;-68
2022/07/14 05:09:34;;;;;;;4.83;2.10;;;;;;;35.54;31.31;98802.67;1698744;84;21108;-69
2022/07/14 05:12:02;;;;;;;2.05;1.85;;;;;;;35.76;30.92;98801.54;1703020;84;21089;-67
2022/07/14 05:14:30;;;;;;;3.40;1.98;;;;;;;36.18;30.59;98801.12;1691854;84;21067;-69
2022/07/14 05:17:00;;;;;;;2.55;1.87;;;;;;;36.49;29.75;98800.62;1692720;84;20993;-74
2022/07/14 05:19:29;;;;;;;3.65;2.05;;;;;;;36.71;29.08;98796.39;1689735;84;21001;-72
2022/07/14 05:21:56;;;;;;;2.10;2.00;;;;;;;37.03;28.96;98792.45;1690724;84;21028;-71
2022/07/14 05:24:24;;;;;;;3.37;2.30;;;;;;;37.39;28.26;98793.27;1700490;84;21852;-69
2022/07/14 05:26:51;;;;;;;3.95;1.98;;;;;;;37.67;27.89;98789.15;1692665;84;20959;-69
2022/07/14 05:29:17;;;;;;;3.15;2.20;;;;;;;37.90;27.22;98782.29;1682684;84;21029;-69
2022/07/14 05:31:44;;;;;;;2.77;2.30;;;;;;;38.03;27.05;98786.52;1691137;84;21059;-69
2022/07/14 05:34:12;;;;;;;2.60;2.30;;;;;;;38.22;26.57;98789.84;1690069;84;20968;-71
2022/07/14 05:36:39;;;;;;;3.25;2.27;;;;;;;38.39;26.65;98787.17;1694468;84;21138;-69
2022/07/14 05:39:06;;;;;;;2.40;2.20;;;;;;;38.69;26.29;98785.33;1696647;84;21004;-71
2022/07/14 05:41:33;;;;;;;4.80;2.30;;;;;;;38.97;25.74;98788.57;1696064;84;20924;-68
2022/07/14 05:44:00;;;;;;;3.00;1.87;;;;;;;39.08;25.60;98794.30;1696234;84;21083;-69
2022/07/14 05:46:26;;;;;;;2.15;1.80;;;;;;;39.40;25.29;98792.77;1694245;84;21010;-71
2022/07/14 05:48:53;;;;;;;2.37;2.10;;;;;;;39.84;24.93;98799.33;1694845;84;21888;-70
2022/07/14 05:51:22;;;;;;;2.75;1.92;;;;;;;40.26;24.25;98794.84;1692590;84;20999;-70
2022/07/14 05:53:50;;;;;;;5.75;2.00;;;;;;;40.54;24.32;98797.95;1697211;84;20896;-70
2022/07/14 05:56:21;;;;;;;4.65;2.25;;;;;;;40.99;23.89;98803.69;1691436;84;21518;-73
2022/07/14 05:58:48;;;;;;;4.08;2.08;;;;;;;41.32;23.19;98802.74;1690221;84;21080;-70
2022/07/14 06:01:17;;;;;;;4.05;1.80;;;;;;;41.46;22.81;98804.81;1690675;84;21253;-70
2022/07/14 06:03:48;;;;;;;3.10;2.40;;;;;;;41.58;22.84;98808.65;1689043;83;21038;-73
2022/07/14 06:06:15;;;;;;;3.77;1.80;;;;;;;41.89;22.35;98798.23;1697006;83;20999;-70
2022/07/14 06:08:43;;;;;;;2.85;2.65;;;;;;;42.08;22.05;98798.48;1692765;84;20895;-72
2022/07/14 06:11:10;;;;;;;2.30;2.10;;;;;;;42.14;21.73;98794.92;1695430;84;20950;-70
2022/07/14 06:13:39;;;;;;;4.40;2.33;;;;;;;42.08;21.75;98797.90;1695973;84;22171;-69
2022/07/14 06:16:05;;;;;;;2.92;1.87;;;;;;;42.20;21.61;98795.34;1684623;84;21172;-72
2022/07/14 06:18:32;;;;;;;3.25;2.10;;;;;;;42.35;21.47;98799.16;1699760;84;20932;-69
2022/07/14 06:20:59;;;;;;;2.95;1.90;;;;;;;42.45;20.94;98797.56;1694391;84;20910;-69
2022/07/14 06:23:26;;;;;;;3.30;1.90;;;;;;;42.45;20.99;98802.56;1652834;85;21020;-71
2022/07/14 06:25:52;;;;;;;3.15;1.75;;;;;;;42.48;21.02;98803.75;1687226;83;21359;-70
2022/07/14 06:28:22;;;;;;;2.00;1.80;;;;;;;42.50;20.91;98804.77;1676802;84;21036;-70
2022/07/14 06:30:50;;;;;;;2.75;1.80;;;;;;;42.68;20.98;98801.41;1683650;84;20966;-69
2022/07/14 06:33:17;;;;;;;4.70;1.80;;;;;;;43.01;20.85;98801.81;1687665;83;21504;-75
2022/07/14 06:35:44;;;;;;;2.22;1.47;;;;;;;43.36;20.24;98786.18;1687134;83;21065;-65
2022/07/14 06:38:11;;;;;;;3.50;1.40;;;;;;;43.66;19.66;98785.65;1690350;84;21246;-71
2022/07/14 06:40:39;;;;;;;1.72;1.57;;;;;;;44.10;19.43;98785.88;1693679;84;21003;-70
2022/07/14 06:43:06;;;;;;;2.00;1.82;;;;;;;44.42;19.16;98786.46;1687839;84;20962;-69
2022/07/14 06:45:40;;;;;;;3.67;2.12;;;;;;;44.91;18.95;98784.48;1678636;83;20954;-69
2022/07/14 06:48:07;;;;;;;3.33;1.67;;;;;;;45.23;18.42;98779.34;1689896;83;20964;-69
2022/07/14 06:50:34;;;;;;;2.05;1.60;;;;;;;45.25;17.81;98788.17;1693528;83;21270;-70
2022/07/14 06:53:00;;;;;;;1.42;1.30;;;;;;;45.31;18.15;98784.50;1688242;84;21081;-70
2022/07/14 06:55:27;;;;;;;1.80;1.57;;;;;;;45.59;17.51;98782.55;1695380;84;20999;-71
2022/07/14 06:57:54;;;;;;;1.57;1.47;;;;;;;45.67;17.29;98784.89;1691960;84;21539;-69
2022/07/14 07:00:21;;;;;;;2.40;1.90;;;;;;;45.42;17.25;98785.78;1693010;84;21624;-70
2022/07/14 07:02:48;;;;;;;2.52;1.52;;;;;;;45.37;17.59;98784.81;1698728;84;21226;-69
2022/07/14 07:08:00;;;;;;;2.10;1.40;;;;;;;45.67;17.74;98786.30;1699768;84;20900;-73
2022/07/14 07:10:27;;;;;;;5.05;2.00;;;;;;;46.04;17.09;98789.64;1693162;84;21046;-72
2022/07/14 07:12:55;;;;;;;2.40;1.37;;;;;;;46.28;17.04;98794.70;1695590;84;21063;-71
2022/07/14 07:15:23;;;;;;;3.35;1.55;;;;;;;46.63;16.58;98784.91;1694890;84;22248;-71
2022/07/14 07:17:49;;;;;;;3.00;1.90;;;;;;;46.63;15.97;98796.97;1696140;84;20896;-72
2022/07/14 07:20:17;;;;;;;2.12;1.25;;;;;;;46.34;15.93;98790.17;1696782;84;21063;-70
2022/07/14 07:22:44;;;;;;;2.22;1.40;;;;;;;46.17;16.23;98788.44;1694652;84;21452;-69
2022/07/14 07:25:12;;;;;;;3.17;1.30;;;;;;;46.15;16.47;98787.44;1698421;84;21015;-70
2022/07/14 07:27:39;;;;;;;1.87;1.40;;;;;;;46.16;16.12;98781.22;1697973;84;21243;-71
2022/07/14 07:30:08;;;;;;;4.00;2.00;;;;;;;45.88;16.49;98793.04;1699181;84;21054;-72
2022/07/14 07:32:36;;;;;;;4.05;1.65;;;;;;;45.62;16.77;98792.95;1696763;84;21076;-71
2022/07/14 07:35:04;;;;;;;7.10;1.55;;;;;;;45.85;16.99;98794.48;1694961;84;20955;-71
2022/07/14 07:37:31;;;;;;;2.30;1.60;;;;;;;45.73;16.91;98797.27;1694380;84;21003;-70
2022/07/14 07:39:58;;;;;;;4.78;1.55;;;;;;;45.49;17.06;98788.50;1695711;84;21240;-73
2022/07/14 07:42:25;;;;;;;2.98;1.42;;;;;;;45.43;17.42;98784.55;1696149;84;20971;-69
2022/07/14 07:44:52;;;;;;;5.75;1.45;;;;;;;45.94;17.00;98781.49;1696819;84;20920;-69
2022/07/14 07:47:19;;;;;;;2.95;1.65;;;;;;;46.42;16.33;98774.81;1695627;84;21493;-71
2022/07/14 07:49:45;;;;;;;1.47;1.37;;;;;;;46.59;15.76;98780.77;1697491;84;20956;-71
2022/07/14 07:52:12;;;;;;;2.70;1.67;;;;;;;46.73;15.76;98780.55;1696446;84;21072;-71
2022/07/14 07:54:39;;;;;;;3.05;1.37;;;;;;;46.93;15.84;98782.02;1697837;84;20995;-69
2022/07/14 07:57:05;;;;;;;8.20;2.05;;;;;;;47.19;15.85;98772.70;1695667;84;20940;-70
2022/07/14 07:59:32;;;;;;;2.85;1.45;;;;;;;47.66;15.43;98781.83;1690409;84;20983;-71
2022/07/14 08:02:00;;;;;;;2.60;1.40;;;;;;;48.09;15.08;98778.88;1664860;84;20980;-70
2022/07/14 08:04:27;;;;;;;2.33;1.47;;;;;;;48.23;14.55;98777.97;1664569;84;21159;-71
2022/07/14 08:06:53;;;;;;;1.72;1.57;;;;;;;48.12;14.46;98780.21;1664379;84;21057;-72
2022/07/14 08:09:19;;;;;;;3.95;1.50;;;;;;;48.08;14.69;98784.35;1664548;84;21108;-73
2022/07/14 08:11:46;;;;;;;3.45;1.82;;;;;;;48.37;14.46;98777.45;1664513;84;21007;-69
2022/07/14 08:16:58;;;;;;;2.77;1.43;;;;;;;48.33;14.32;98782.37;1664764;84;21185;-72
2022/07/14 08:19:26;;;;;;;4.30;1.80;;;;;;;48.18;14.49;98786.95;1664352;84;20987;-70
2022/07/14 08:21:52;;;;;;;2.62;1.32;;;;;;;48.00;14.24;98781.52;1663681;84;20959;-70
2022/07/14 08:24:18;;;;;;;5.60;1.37;;;;;;;47.82;14.38;98786.75;1664505;84;21007;-72
2022/07/14 08:26:46;;;;;;;1.40;1.30;;;;;;;47.77;14.56;98775.33;1664630;84;20952;-70
2022/07/14 08:29:13;;;;;;;1.85;1.50;;;;;;;47.72;14.10;98787.11;1664527;84;21240;-73
2022/07/14 08:31:40;;;;;;;3.22;2.72;;;;;;;47.52;14.12;98785.73;1664547;84;21083;-70
2022/07/14 08:34:07;;;;;;;4.50;2.17;;;;;;;47.07;14.81;98785.96;1664397;84;21511;-70
2022/07/14 08:36:35;;;;;;;2.37;1.70;;;;;;;46.89;15.66;98786.29;1664399;84;21026;-72
2022/07/14 08:39:05;;;;;;;2.33;1.70;;;;;;;46.75;15.51;98786.53;1664498;84;20923;-73
2022/07/14 08:41:30;;;;;;;2.72;1.77;;;;;;;45.87;15.84;98801.27;1666514;84;21888;-68
2022/07/14 08:43:56;;;;;;;4.00;1.50;;;;;;;44.34;17.15;98796.73;1672038;84;20950;-70
2022/07/14 08:46:23;;;;;;;1.67;1.55;;;;;;;43.13;17.74;98789.39;1660887;84;20951;-70
2022/07/14 08:48:52;;;;;;;2.80;1.40;;;;;;;43.35;17.67;98790.17;1664249;84;21032;-74
2022/07/14 08:51:21;;;;;;;2.22;1.47;;;;;;;44.06;16.87;98787.88;1664505;84;20915;-70
2022/07/14 08:53:47;;;;;;;1.62;1.40;;;;;;;44.46;16.72;98786.41;1673649;84;21183;-73
2022/07/14 08:56:14;;;;;;;1.82;1.52;;;;;;;44.86;16.67;98784.91;1685357;84;21349;-71
2022/07/14 08:58:41;;;;;;;4.78;1.45;;;;;;;45.05;16.62;98788.56;1675708;84;20955;-71
2022/07/14 09:01:09;;;;;;;1.75;1.45;;;;;;;45.08;16.46;98784.30;1686135;84;21052;-72
2022/07/14 09:03:35;;;;;;;1.47;1.37;;;;;;;44.35;16.44;98780.91;1699085;84;21612;-73
2022/07/14 09:06:02;;;;;;;3.92;1.67;;;;;;;43.58;17.00;98792.69;1695725;84;21217;-71
2022/07/14 09:08:29;;;;;;;1.60;1.50;;;;;;;43.40;17.52;98780.76;1694732;84;20944;-70
2022/07/14 09:10:55;;;;;;;2.62;1.50;;;;;;;42.91;17.34;98785.02;1694435;84;20995;-70
2022/07/14 09:13:24;;;;;;;1.92;1.60;;;;;;;42.12;18.01;98781.13;1696635;84;21144;-71
2022/07/14 09:15:54;;;;;;;4.85;2.35;;;;;;;41.03;18.91;98783.61;1695226;84;21084;-70
2022/07/14 09:18:24;;;;;;;2.37;1.90;;;;;;;40.07;19.98;98782.53;1649566;84;39090;-70
2022/07/14 09:20:52;;;;;;;2.00;1.47;;;;;;;40.33;20.44;98784.38;1696491;84;21036;-70
2022/07/14 09:23:30;;;;;;;3.67;1.37;;;;;;;40.45;19.99;98777.91;1696224;84;21017;-71
2022/07/14 09:26:11;;;;;;;1.82;1.25;;;;;;;39.92;20.18;98778.73;1698401;84;20943;-70
2022/07/14 09:28:42;;;;;;;4.00;1.65;;;;;;;38.80;21.21;98771.83;1683534;84;20967;-70
2022/07/14 09:31:24;;;;;;;2.62;1.65;;;;;;;38.26;22.05;98774.03;1684349;84;20908;-73
2022/07/14 09:33:58;;;;;;;3.47;1.52;;;;;;;38.81;21.93;98767.88;1695714;84;20924;-70
2022/07/14 09:36:36;;;;;;;2.05;1.32;;;;;;;39.50;21.46;98772.05;1654502;86;20925;-70
2022/07/14 09:39:06;;;;;;;2.08;1.65;;;;;;;39.53;21.35;98766.31;1693585;84;21497;-70
2022/07/14 09:41:49;;;;;;;3.60;1.42;;;;;;;38.75;22.14;98772.72;1696981;84;20900;-70
2022/07/14 09:44:17;;;;;;;4.05;1.50;;;;;;;38.25;23.23;98773.80;1689725;84;21560;-71
2022/07/14 09:46:51;;;;;;;2.40;1.32;;;;;;;37.93;23.53;98766.87;1694794;84;20943;-72
2022/07/14 09:49:19;;;;;;;1.50;1.40;;;;;;;37.51;23.53;98769.00;1695795;84;21015;-70
2022/07/14 09:52:02;;;;;;;3.30;1.50;;;;;;;37.16;24.38;98769.56;1698914;84;20951;-71
2022/07/14 09:54:47;;;;;;;2.42;1.20;;;;;;;36.85;24.63;98772.38;1687720;83;20950;-71
2022/07/14 09:57:18;;;;;;;4.10;1.40;;;;;;;36.39;24.88;98770.66;1695988;84;21139;-70
2022/07/14 09:59:57;;;;;;;2.12;1.55;;;;;;;35.94;25.77;98768.25;1693986;84;20986;-73
2022/07/14 10:02:29;;;;;;;2.27;1.50;;;;;;;35.75;26.55;98769.48;1694431;84;20952;-71
2022/07/14 10:05:02;;;;;;;1.55;1.45;;;;;;;35.64;26.14;98762.06;1690825;84;20949;-71
2022/07/14 10:07:35;;;;;;;2.58;1.27;;;;;;;35.41;25.73;98763.73;1693475;84;20998;-73
2022/07/14 10:10:11;;;;;;;1.57;1.35;;;;;;;35.04;26.28;98758.83;1696135;84;21088;-71
2022/07/14 10:12:39;;;;;;;1.50;1.40;;;;;;;34.80;27.05;98757.47;1695331;84;21537;-70
2022/07/14 10:15:11;;;;;;;2.55;1.55;;;;;;;34.61;27.22;98760.23;1697194;84;20943;-71
2022/07/14 10:17:40;;;;;;;1.98;1.67;;;;;;;34.53;26.86;98751.46;1696655;84;20971;-70
2022/07/14 10:20:10;;;;;;;6.30;1.65;;;;;;;34.31;27.16;98756.03;1698302;84;20982;-70
2022/07/14 10:22:36;;;;;;;3.83;1.95;;;;;;;34.29;27.74;98758.90;1695458;84;21131;-74
2022/07/14 10:25:05;;;;;;;2.35;1.32;;;;;;;34.34;27.58;98754.56;1699091;84;20915;-74
2022/07/14 10:27:33;;;;;;;2.02;1.50;;;;;;;34.32;27.96;98752.13;1696587;84;20910;-74
2022/07/14 10:30:00;;;;;;;2.15;1.30;;;;;;;34.30;28.04;98750.30;1692002;84;20940;-70
2022/07/14 10:33:12;;;;;;;3.70;1.60;;;;;;;34.22;27.92;98751.77;1695975;84;20990;-69
2022/07/14 10:36:33;;;;;;;2.87;1.80;;;;;;;34.17;27.81;98758.89;1693977;84;21238;-70
2022/07/14 10:39:23;;;;;;;2.67;1.45;;;;;;;33.90;27.71;98747.30;1695409;84;20864;-70
2022/07/14 10:42:23;;;;;;;2.12;1.52;;;;;;;33.62;28.32;98755.12;1690102;84;21444;-73
2022/07/14 10:44:50;;;;;;;1.90;1.60;;;;;;;33.49;29.07;98755.62;1697903;84;20908;-71
2022/07/14 10:47:18;;;;;;;4.50;1.80;;;;;;;33.38;29.05;98757.98;1698756;84;21003;-71
2022/07/14 10:50:16;;;;;;;3.90;1.50;;;;;;;33.19;29.06;98759.02;1698708;84;21268;-73
2022/07/14 10:53:02;;;;;;;1.87;1.70;;;;;;;33.03;29.27;98757.17;1681368;84;20955;-71
2022/07/14 10:55:36;;;;;;;2.45;1.82;;;;;;;32.78;29.68;98761.69;1695394;84;21493;-73
2022/07/14 10:58:11;;;;;;;1.70;1.60;;;;;;;32.59;30.61;98759.36;1693836;84;20921;-71
2022/07/14 11:00:47;;;;;;;2.15;2.05;;;;;;;32.52;30.70;98749.44;1684455;84;21028;-68
2022/07/14 11:03:27;;;;;;;1.95;1.77;;;;;;;32.46;31.08;98760.95;1687746;83;21122;-71
2022/07/14 11:06:12;;;;;;;3.22;1.50;;;;;;;32.44;31.49;98759.08;1693932;84;21621;-73
2022/07/14 11:08:43;;;;;;;2.40;1.80;;;;;;;32.40;30.48;98754.81;1694456;84;21051;-70
2022/07/14 11:11:23;;;;;;;4.58;1.82;;;;;;;32.23;30.85;98763.12;1696583;84;20912;-70
2022/07/14 11:14:06;;;;;;;1.40;1.30;;;;;;;32.10;30.89;98763.57;1693953;84;21009;-70
2022/07/14 11:16:50;;;;;;;1.50;1.40;;;;;;;32.06;31.54;98755.75;1693288;83;21322;-71
2022/07/14 11:19:32;;;;;;;2.87;1.70;;;;;;;32.07;31.38;98757.34;1695643;84;20988;-70
2022/07/14 11:22:19;;;;;;;2.92;2.02;;;;;;;32.07;31.47;98764.22;1695827;84;21480;-74
2022/07/14 11:24:47;;;;;;;;;;;;;;;32.05;31.80;98760.19;1701324;84;21008;-73
2022/07/14 11:27:32;;;;;;;2.70;2.02;;;;;;;32.09;31.85;98755.66;1690133;84;20141;-70
2022/07/14 11:30:28;;;;;;;2.20;2.10;;;;;;;32.19;32.49;98753.92;1695658;84;21097;-70
2022/07/14 11:33:03;;;;;;;2.52;1.60;;;;;;;32.31;31.93;98750.72;1688603;84;21077;-69
2022/07/14 11:38:34;;;;;;;1.87;1.77;;;;;;;32.28;31.17;98751.94;1694025;84;20943;-70
2022/07/14 11:41:02;;;;;;;2.83;1.70;;;;;;;32.12;31.54;98755.00;1696403;84;20907;-71
2022/07/14 11:43:36;;;;;;;3.80;1.65;;;;;;;32.02;31.67;98753.95;1698547;84;21176;-70
2022/07/14 11:46:10;;;;;;;2.42;2.08;;;;;;;31.98;31.86;98748.85;1698139;84;20931;-70
2022/07/14 11:48:55;;;;;;;5.55;1.70;;;;;;;31.94;31.62;98750.66;1699517;84;21604;-70
2022/07/14 11:51:29;;;;;;;1.70;1.45;;;;;;;31.87;32.13;98756.64;1696670;84;21516;-70
2022/07/14 11:54:01;;;;;;;2.12;1.60;;;;;;;31.87;32.44;98748.95;1684187;83;21571;-70
2022/07/14 11:56:29;;;;;;;3.08;1.55;;;;;;;31.86;31.61;98744.61;1691630;84;21139;-70
2022/07/14 11:59:05;;;;;;;2.65;1.47;;;;;;;31.73;31.69;98744.45;1684154;84;21556;-70
2022/07/14 12:01:36;;;;;;;3.00;1.80;;;;;;;31.63;31.61;98754.41;1698282;84;21315;-70